sensor_id;sensor_type;location;lat;lon;timestamp;P1;durP1;ratioP1;P2;durP2;ratioP2
20559;SDS011;10438;51.454;6.718;2023-08-01T00:00:56;3.40;;;1.30;;
20559;SDS011;10438;51.454;6.718;2023-08-01T00:03:22;3.80;;;1.27;;
20559;SDS011;10438;51.454;6.718;2023-08-01T00:05:48;6.90;;;1.40;;
20559;SDS011;10438;51.454;6.718;2023-08-01T00:08:14;3.53;;;1.27;;
20559;SDS011;10438;51.454;6.718;2023-08-01T00:10:40;2.55;;;1.10;;
20559;SDS011;10438;51.454;6.718;2023-08-01T00:13:06;3.67;;;1.42;;
20559;SDS011;10438;51.454;6.718;2023-08-01T00:15:31;4.43;;;1.55;;
20559;SDS011;10438;51.454;6.718;2023-08-01T00:17:57;3.40;;;1.60;;
20559;SDS011;10438;51.454;6.718;2023-08-01T00:20:23;3.05;;;1.42;;
20559;SDS011;10438;51.454;6.718;2023-08-01T00:22:48;4.25;;;1.83;;
20559;SDS011;10438;51.454;6.718;2023-08-01T00:25:14;3.80;;;1.80;;
20559;SDS011;10438;51.454;6.718;2023-08-01T00:27:39;4.35;;;1.85;;
20559;SDS011;10438;51.454;6.718;2023-08-01T00:30:05;4.07;;;1.85;;
20559;SDS011;10438;51.454;6.718;2023-08-01T00:32:32;3.72;;;1.77;;
20559;SDS011;10438;51.454;6.718;2023-08-01T00:34:57;4.30;;;1.70;;
20559;SDS011;10438;51.454;6.718;2023-08-01T00:37:23;3.75;;;2.10;;
20559;SDS011;10438;51.454;6.718;2023-08-01T00:39:48;4.00;;;1.90;;
20559;SDS011;10438;51.454;6.718;2023-08-01T00:42:14;6.40;;;2.40;;
20559;SDS011;10438;51.454;6.718;2023-08-01T00:44:40;5.20;;;1.90;;
20559;SDS011;10438;51.454;6.718;2023-08-01T00:47:06;3.90;;;2.10;;
20559;SDS011;10438;51.454;6.718;2023-08-01T00:49:32;4.78;;;2.45;;
20559;SDS011;10438;51.454;6.718;2023-08-01T00:51:58;5.75;;;2.50;;
20559;SDS011;10438;51.454;6.718;2023-08-01T00:54:23;5.75;;;2.58;;
20559;SDS011;10438;51.454;6.718;2023-08-01T00:56:50;4.53;;;2.33;;
20559;SDS011;10438;51.454;6.718;2023-08-01T00:59:15;4.53;;;2.05;;
20559;SDS011;10438;51.454;6.718;2023-08-01T01:01:41;7.85;;;2.70;;
20559;SDS011;10438;51.454;6.718;2023-08-01T01:04:07;7.82;;;2.80;;
20559;SDS011;10438;51.454;6.718;2023-08-01T01:09:18;5.30;;;2.33;;
20559;SDS011;10438;51.454;6.718;2023-08-01T01:11:45;6.05;;;2.53;;
20559;SDS011;10438;51.454;6.718;2023-08-01T01:14:11;6.78;;;2.85;;
20559;SDS011;10438;51.454;6.718;2023-08-01T01:33:26;7.25;;;3.17;;
20559;SDS011;10438;51.454;6.718;2023-08-01T01:35:53;5.63;;;2.58;;
20559;SDS011;10438;51.454;6.718;2023-08-01T01:38:19;6.82;;;2.65;;
20559;SDS011;10438;51.454;6.718;2023-08-01T01:40:44;6.80;;;2.65;;
20559;SDS011;10438;51.454;6.718;2023-08-01T01:43:10;4.32;;;2.22;;
20559;SDS011;10438;51.454;6.718;2023-08-01T01:45:35;5.97;;;2.53;;
20559;SDS011;10438;51.454;6.718;2023-08-01T01:48:01;3.72;;;2.00;;
20559;SDS011;10438;51.454;6.718;2023-08-01T01:50:26;6.90;;;2.70;;
20559;SDS011;10438;51.454;6.718;2023-08-01T01:52:52;5.63;;;2.70;;
20559;SDS011;10438;51.454;6.718;2023-08-01T01:55:17;5.22;;;2.78;;
20559;SDS011;10438;51.454;6.718;2023-08-01T01:57:43;7.13;;;3.03;;
20559;SDS011;10438;51.454;6.718;2023-08-01T02:00:09;7.70;;;3.00;;
20559;SDS011;10438;51.454;6.718;2023-08-01T02:02:35;6.32;;;3.50;;
20559;SDS011;10438;51.454;6.718;2023-08-01T02:05:01;11.00;;;3.92;;
20559;SDS011;10438;51.454;6.718;2023-08-01T02:07:28;7.00;;;4.25;;
20559;SDS011;10438;51.454;6.718;2023-08-01T02:09:54;6.72;;;4.22;;
20559;SDS011;10438;51.454;6.718;2023-08-01T02:12:20;8.55;;;3.97;;
20559;SDS011;10438;51.454;6.718;2023-08-01T02:14:45;8.77;;;4.45;;
20559;SDS011;10438;51.454;6.718;2023-08-01T02:17:11;8.80;;;4.80;;
20559;SDS011;10438;51.454;6.718;2023-08-01T02:19:36;10.93;;;5.25;;
20559;SDS011;10438;51.454;6.718;2023-08-01T02:22:02;13.43;;;5.90;;
20559;SDS011;10438;51.454;6.718;2023-08-01T02:24:27;10.80;;;5.38;;
20559;SDS011;10438;51.454;6.718;2023-08-01T02:26:53;10.32;;;5.70;;
20559;SDS011;10438;51.454;6.718;2023-08-01T02:29:19;13.25;;;6.35;;
20559;SDS011;10438;51.454;6.718;2023-08-01T02:31:44;12.52;;;6.40;;
20559;SDS011;10438;51.454;6.718;2023-08-01T02:34:10;11.10;;;6.72;;
20559;SDS011;10438;51.454;6.718;2023-08-01T02:36:35;14.25;;;7.60;;
20559;SDS011;10438;51.454;6.718;2023-08-01T02:39:01;13.07;;;8.10;;
20559;SDS011;10438;51.454;6.718;2023-08-01T02:41:26;16.98;;;9.27;;
20559;SDS011;10438;51.454;6.718;2023-08-01T02:43:52;16.50;;;10.13;;
20559;SDS011;10438;51.454;6.718;2023-08-01T02:46:17;20.38;;;11.55;;
20559;SDS011;10438;51.454;6.718;2023-08-01T02:48:43;20.25;;;12.35;;
20559;SDS011;10438;51.454;6.718;2023-08-01T02:51:08;23.25;;;13.35;;
20559;SDS011;10438;51.454;6.718;2023-08-01T02:53:34;27.58;;;14.07;;
20559;SDS011;10438;51.454;6.718;2023-08-01T02:56:00;25.25;;;14.82;;
20559;SDS011;10438;51.454;6.718;2023-08-01T02:58:26;36.03;;;17.98;;
20559;SDS011;10438;51.454;6.718;2023-08-01T03:00:52;32.75;;;18.17;;
20559;SDS011;10438;51.454;6.718;2023-08-01T03:03:17;27.60;;;17.13;;
20559;SDS011;10438;51.454;6.718;2023-08-01T03:05:43;29.63;;;17.42;;
20559;SDS011;10438;51.454;6.718;2023-08-01T03:08:08;32.60;;;17.27;;
20559;SDS011;10438;51.454;6.718;2023-08-01T03:10:34;26.52;;;15.77;;
20559;SDS011;10438;51.454;6.718;2023-08-01T03:12:59;28.55;;;16.83;;
20559;SDS011;10438;51.454;6.718;2023-08-01T03:15:25;28.48;;;16.75;;
20559;SDS011;10438;51.454;6.718;2023-08-01T03:17:52;30.10;;;16.50;;
20559;SDS011;10438;51.454;6.718;2023-08-01T03:20:17;36.70;;;17.55;;
20559;SDS011;10438;51.454;6.718;2023-08-01T03:22:43;39.30;;;16.98;;
20559;SDS011;10438;51.454;6.718;2023-08-01T03:25:08;25.42;;;16.08;;
20559;SDS011;10438;51.454;6.718;2023-08-01T03:27:34;31.00;;;17.65;;
20559;SDS011;10438;51.454;6.718;2023-08-01T03:29:59;29.58;;;15.32;;
20559;SDS011;10438;51.454;6.718;2023-08-01T03:32:25;29.00;;;15.93;;
20559;SDS011;10438;51.454;6.718;2023-08-01T03:34:51;31.30;;;15.75;;
20559;SDS011;10438;51.454;6.718;2023-08-01T03:37:17;31.05;;;15.40;;
20559;SDS011;10438;51.454;6.718;2023-08-01T03:39:43;30.88;;;16.05;;
20559;SDS011;10438;51.454;6.718;2023-08-01T03:42:09;26.02;;;15.45;;
20559;SDS011;10438;51.454;6.718;2023-08-01T03:44:34;26.20;;;15.07;;
20559;SDS011;10438;51.454;6.718;2023-08-01T03:47:00;31.77;;;16.45;;
20559;SDS011;10438;51.454;6.718;2023-08-01T03:49:25;25.60;;;15.85;;
20559;SDS011;10438;51.454;6.718;2023-08-01T03:51:51;29.33;;;16.53;;
20559;SDS011;10438;51.454;6.718;2023-08-01T03:54:17;31.27;;;16.27;;
20559;SDS011;10438;51.454;6.718;2023-08-01T03:56:42;31.00;;;16.08;;
20559;SDS011;10438;51.454;6.718;2023-08-01T03:59:12;30.35;;;16.05;;
20559;SDS011;10438;51.454;6.718;2023-08-01T04:01:39;27.80;;;16.25;;
20559;SDS011;10438;51.454;6.718;2023-08-01T04:04:04;37.05;;;17.40;;
20559;SDS011;10438;51.454;6.718;2023-08-01T04:06:30;34.65;;;16.15;;
20559;SDS011;10438;51.454;6.718;2023-08-01T04:08:56;34.07;;;16.70;;
20559;SDS011;10438;51.454;6.718;2023-08-01T04:11:21;33.22;;;16.77;;
20559;SDS011;10438;51.454;6.718;2023-08-01T04:13:47;36.53;;;18.95;;
20559;SDS011;10438;51.454;6.718;2023-08-01T04:16:13;31.83;;;16.30;;
20559;SDS011;10438;51.454;6.718;2023-08-01T04:18:38;31.83;;;17.65;;
20559;SDS011;10438;51.454;6.718;2023-08-01T04:21:04;32.28;;;17.75;;
20559;SDS011;10438;51.454;6.718;2023-08-01T04:23:29;32.33;;;18.20;;
20559;SDS011;10438;51.454;6.718;2023-08-01T04:25:55;35.53;;;18.17;;
20559;SDS011;10438;51.454;6.718;2023-08-01T04:28:20;31.35;;;17.92;;
20559;SDS011;10438;51.454;6.718;2023-08-01T04:30:49;34.95;;;18.23;;
20559;SDS011;10438;51.454;6.718;2023-08-01T04:33:15;31.80;;;17.75;;
20559;SDS011;10438;51.454;6.718;2023-08-01T04:35:41;31.98;;;16.80;;
20559;SDS011;10438;51.454;6.718;2023-08-01T04:38:07;27.98;;;16.98;;
20559;SDS011;10438;51.454;6.718;2023-08-01T04:40:33;30.67;;;17.80;;
20559;SDS011;10438;51.454;6.718;2023-08-01T04:43:01;28.58;;;16.52;;
20559;SDS011;10438;51.454;6.718;2023-08-01T04:45:26;31.00;;;17.55;;
20559;SDS011;10438;51.454;6.718;2023-08-01T04:47:52;35.75;;;16.95;;
20559;SDS011;10438;51.454;6.718;2023-08-01T04:50:18;30.67;;;16.90;;
20559;SDS011;10438;51.454;6.718;2023-08-01T04:52:43;32.20;;;17.42;;
20559;SDS011;10438;51.454;6.718;2023-08-01T04:55:09;33.08;;;16.92;;
20559;SDS011;10438;51.454;6.718;2023-08-01T04:57:34;30.05;;;17.25;;
20559;SDS011;10438;51.454;6.718;2023-08-01T05:00:00;35.53;;;18.00;;
20559;SDS011;10438;51.454;6.718;2023-08-01T05:02:26;30.92;;;18.40;;
20559;SDS011;10438;51.454;6.718;2023-08-01T05:04:51;31.73;;;18.90;;
20559;SDS011;10438;51.454;6.718;2023-08-01T05:07:17;34.38;;;18.30;;
20559;SDS011;10438;51.454;6.718;2023-08-01T05:09:42;30.70;;;19.15;;
20559;SDS011;10438;51.454;6.718;2023-08-01T05:12:08;38.97;;;20.67;;
20559;SDS011;10438;51.454;6.718;2023-08-01T05:14:34;32.58;;;18.75;;
20559;SDS011;10438;51.454;6.718;2023-08-01T05:16:59;34.97;;;20.25;;
20559;SDS011;10438;51.454;6.718;2023-08-01T05:19:25;34.53;;;18.35;;
20559;SDS011;10438;51.454;6.718;2023-08-01T05:21:50;33.78;;;19.60;;
20559;SDS011;10438;51.454;6.718;2023-08-01T05:24:16;36.53;;;19.30;;
20559;SDS011;10438;51.454;6.718;2023-08-01T05:26:42;35.00;;;19.80;;
20559;SDS011;10438;51.454;6.718;2023-08-01T05:29:07;37.55;;;20.08;;
20559;SDS011;10438;51.454;6.718;2023-08-01T05:31:33;30.95;;;19.92;;
20559;SDS011;10438;51.454;6.718;2023-08-01T05:33:58;36.50;;;19.75;;
20559;SDS011;10438;51.454;6.718;2023-08-01T05:36:24;36.40;;;20.60;;
20559;SDS011;10438;51.454;6.718;2023-08-01T05:38:49;31.65;;;19.60;;
20559;SDS011;10438;51.454;6.718;2023-08-01T05:41:15;35.88;;;20.70;;
20559;SDS011;10438;51.454;6.718;2023-08-01T05:43:40;33.88;;;20.58;;
20559;SDS011;10438;51.454;6.718;2023-08-01T05:46:06;31.65;;;19.60;;
20559;SDS011;10438;51.454;6.718;2023-08-01T05:48:31;35.60;;;20.00;;
20559;SDS011;10438;51.454;6.718;2023-08-01T05:50:57;33.65;;;19.63;;
20559;SDS011;10438;51.454;6.718;2023-08-01T05:53:23;33.17;;;19.65;;
20559;SDS011;10438;51.454;6.718;2023-08-01T05:55:48;29.20;;;17.98;;
20559;SDS011;10438;51.454;6.718;2023-08-01T05:58:14;33.45;;;19.40;;
20559;SDS011;10438;51.454;6.718;2023-08-01T06:00:40;38.35;;;19.27;;
20559;SDS011;10438;51.454;6.718;2023-08-01T06:03:06;35.72;;;18.75;;
20559;SDS011;10438;51.454;6.718;2023-08-01T06:05:31;30.55;;;19.08;;
20559;SDS011;10438;51.454;6.718;2023-08-01T06:07:57;34.75;;;18.80;;
20559;SDS011;10438;51.454;6.718;2023-08-01T06:10:22;30.50;;;18.45;;
20559;SDS011;10438;51.454;6.718;2023-08-01T06:12:48;29.92;;;17.77;;
20559;SDS011;10438;51.454;6.718;2023-08-01T06:15:14;26.88;;;18.17;;
20559;SDS011;10438;51.454;6.718;2023-08-01T06:17:39;29.77;;;17.40;;
20559;SDS011;10438;51.454;6.718;2023-08-01T06:20:05;35.00;;;17.67;;
20559;SDS011;10438;51.454;6.718;2023-08-01T06:22:31;29.88;;;17.40;;
20559;SDS011;10438;51.454;6.718;2023-08-01T06:24:57;31.02;;;18.15;;
20559;SDS011;10438;51.454;6.718;2023-08-01T06:27:22;29.63;;;17.50;;
20559;SDS011;10438;51.454;6.718;2023-08-01T06:29:48;30.17;;;17.70;;
20559;SDS011;10438;51.454;6.718;2023-08-01T06:32:14;32.47;;;17.35;;
20559;SDS011;10438;51.454;6.718;2023-08-01T06:34:39;32.25;;;17.42;;
20559;SDS011;10438;51.454;6.718;2023-08-01T06:37:05;25.02;;;17.10;;
20559;SDS011;10438;51.454;6.718;2023-08-01T06:39:30;30.63;;;18.10;;
20559;SDS011;10438;51.454;6.718;2023-08-01T06:41:56;26.98;;;17.58;;
20559;SDS011;10438;51.454;6.718;2023-08-01T06:44:21;27.35;;;16.30;;
20559;SDS011;10438;51.454;6.718;2023-08-01T06:46:47;23.88;;;14.90;;
20559;SDS011;10438;51.454;6.718;2023-08-01T06:49:13;23.35;;;14.23;;
20559;SDS011;10438;51.454;6.718;2023-08-01T06:51:38;27.60;;;13.55;;
20559;SDS011;10438;51.454;6.718;2023-08-01T06:54:04;22.98;;;12.38;;
20559;SDS011;10438;51.454;6.718;2023-08-01T06:56:29;24.83;;;12.52;;
20559;SDS011;10438;51.454;6.718;2023-08-01T06:58:55;22.70;;;11.73;;
20559;SDS011;10438;51.454;6.718;2023-08-01T07:01:20;25.67;;;11.85;;
20559;SDS011;10438;51.454;6.718;2023-08-01T07:03:47;20.17;;;11.98;;
20559;SDS011;10438;51.454;6.718;2023-08-01T07:06:13;22.88;;;10.55;;
20559;SDS011;10438;51.454;6.718;2023-08-01T07:08:38;19.23;;;11.10;;
20559;SDS011;10438;51.454;6.718;2023-08-01T07:11:04;22.38;;;10.18;;
20559;SDS011;10438;51.454;6.718;2023-08-01T07:13:29;20.50;;;10.23;;
20559;SDS011;10438;51.454;6.718;2023-08-01T07:15:55;17.23;;;9.73;;
20559;SDS011;10438;51.454;6.718;2023-08-01T07:18:20;22.70;;;10.23;;
20559;SDS011;10438;51.454;6.718;2023-08-01T07:20:46;21.67;;;10.48;;
20559;SDS011;10438;51.454;6.718;2023-08-01T07:23:11;24.85;;;10.95;;
20559;SDS011;10438;51.454;6.718;2023-08-01T07:25:37;17.42;;;9.52;;
20559;SDS011;10438;51.454;6.718;2023-08-01T07:28:02;20.23;;;9.77;;
20559;SDS011;10438;51.454;6.718;2023-08-01T07:30:28;18.92;;;10.05;;
20559;SDS011;10438;51.454;6.718;2023-08-01T07:32:54;17.00;;;9.52;;
20559;SDS011;10438;51.454;6.718;2023-08-01T07:35:19;20.02;;;9.57;;
20559;SDS011;10438;51.454;6.718;2023-08-01T07:37:45;18.63;;;9.25;;
20559;SDS011;10438;51.454;6.718;2023-08-01T07:40:10;22.85;;;10.00;;
20559;SDS011;10438;51.454;6.718;2023-08-01T07:42:36;20.38;;;9.35;;
20559;SDS011;10438;51.454;6.718;2023-08-01T07:45:02;16.05;;;9.18;;
20559;SDS011;10438;51.454;6.718;2023-08-01T07:47:27;18.55;;;8.80;;
20559;SDS011;10438;51.454;6.718;2023-08-01T07:49:53;15.00;;;9.35;;
20559;SDS011;10438;51.454;6.718;2023-08-01T07:52:19;17.17;;;9.23;;
20559;SDS011;10438;51.454;6.718;2023-08-01T07:54:44;19.50;;;9.07;;
20559;SDS011;10438;51.454;6.718;2023-08-01T07:57:10;18.60;;;8.02;;
20559;SDS011;10438;51.454;6.718;2023-08-01T07:59:36;22.83;;;8.38;;
20559;SDS011;10438;51.454;6.718;2023-08-01T08:02:01;13.48;;;7.82;;
20559;SDS011;10438;51.454;6.718;2023-08-01T08:04:27;16.50;;;8.90;;
20559;SDS011;10438;51.454;6.718;2023-08-01T08:06:53;20.33;;;8.30;;
20559;SDS011;10438;51.454;6.718;2023-08-01T08:09:19;17.13;;;8.07;;
20559;SDS011;10438;51.454;6.718;2023-08-01T08:11:47;16.70;;;9.05;;
20559;SDS011;10438;51.454;6.718;2023-08-01T08:14:13;20.65;;;8.52;;
20559;SDS011;10438;51.454;6.718;2023-08-01T08:16:40;16.48;;;8.23;;
20559;SDS011;10438;51.454;6.718;2023-08-01T08:19:05;17.23;;;8.63;;
20559;SDS011;10438;51.454;6.718;2023-08-01T08:21:31;18.30;;;8.05;;
20559;SDS011;10438;51.454;6.718;2023-08-01T08:23:56;19.55;;;8.00;;
20559;SDS011;10438;51.454;6.718;2023-08-01T08:26:22;17.15;;;8.75;;
20559;SDS011;10438;51.454;6.718;2023-08-01T08:28:48;16.52;;;8.32;;
20559;SDS011;10438;51.454;6.718;2023-08-01T08:31:14;13.82;;;8.43;;
20559;SDS011;10438;51.454;6.718;2023-08-01T08:33:40;12.48;;;7.10;;
20559;SDS011;10438;51.454;6.718;2023-08-01T08:36:05;14.70;;;7.68;;
20559;SDS011;10438;51.454;6.718;2023-08-01T08:38:31;13.85;;;7.90;;
20559;SDS011;10438;51.454;6.718;2023-08-01T08:41:09;14.70;;;7.47;;
20559;SDS011;10438;51.454;6.718;2023-08-01T08:43:38;12.00;;;7.25;;
20559;SDS011;10438;51.454;6.718;2023-08-01T08:46:06;12.30;;;7.18;;
20559;SDS011;10438;51.454;6.718;2023-08-01T08:48:34;13.48;;;7.07;;
20559;SDS011;10438;51.454;6.718;2023-08-01T08:51:01;14.60;;;7.82;;
20559;SDS011;10438;51.454;6.718;2023-08-01T08:53:28;15.13;;;6.90;;
20559;SDS011;10438;51.454;6.718;2023-08-01T08:55:55;11.35;;;6.10;;
20559;SDS011;10438;51.454;6.718;2023-08-01T08:58:20;11.57;;;6.10;;
20559;SDS011;10438;51.454;6.718;2023-08-01T09:00:47;14.05;;;6.18;;
20559;SDS011;10438;51.454;6.718;2023-08-01T09:03:13;14.73;;;6.47;;
20559;SDS011;10438;51.454;6.718;2023-08-01T09:05:45;11.90;;;6.10;;
20559;SDS011;10438;51.454;6.718;2023-08-01T09:08:18;13.48;;;5.80;;
20559;SDS011;10438;51.454;6.718;2023-08-01T09:10:45;11.40;;;5.70;;
20559;SDS011;10438;51.454;6.718;2023-08-01T09:13:12;8.60;;;4.63;;
20559;SDS011;10438;51.454;6.718;2023-08-01T09:15:37;12.02;;;4.57;;
20559;SDS011;10438;51.454;6.718;2023-08-01T09:18:07;9.10;;;4.35;;
20559;SDS011;10438;51.454;6.718;2023-08-01T09:20:40;10.10;;;4.35;;
20559;SDS011;10438;51.454;6.718;2023-08-01T09:23:10;9.57;;;4.00;;
20559;SDS011;10438;51.454;6.718;2023-08-01T09:25:41;11.30;;;4.25;;
20559;SDS011;10438;51.454;6.718;2023-08-01T09:28:20;9.18;;;3.92;;
20559;SDS011;10438;51.454;6.718;2023-08-01T09:30:51;9.25;;;4.38;;
20559;SDS011;10438;51.454;6.718;2023-08-01T09:33:19;10.38;;;3.88;;
20559;SDS011;10438;51.454;6.718;2023-08-01T09:35:45;9.60;;;3.67;;
20559;SDS011;10438;51.454;6.718;2023-08-01T09:38:11;10.65;;;3.85;;
20559;SDS011;10438;51.454;6.718;2023-08-01T09:40:40;13.10;;;3.75;;
20559;SDS011;10438;51.454;6.718;2023-08-01T09:43:07;8.88;;;3.20;;
20559;SDS011;10438;51.454;6.718;2023-08-01T09:45:32;8.02;;;3.30;;
20559;SDS011;10438;51.454;6.718;2023-08-01T09:47:59;8.50;;;3.45;;
20559;SDS011;10438;51.454;6.718;2023-08-01T09:50:25;12.43;;;3.60;;
20559;SDS011;10438;51.454;6.718;2023-08-01T09:52:51;17.15;;;3.80;;
20559;SDS011;10438;51.454;6.718;2023-08-01T09:55:22;7.28;;;3.42;;
20559;SDS011;10438;51.454;6.718;2023-08-01T09:57:53;7.47;;;3.30;;
20559;SDS011;10438;51.454;6.718;2023-08-01T10:00:21;11.73;;;3.40;;
20559;SDS011;10438;51.454;6.718;2023-08-01T10:02:47;12.25;;;3.90;;
20559;SDS011;10438;51.454;6.718;2023-08-01T10:05:15;8.00;;;3.08;;
20559;SDS011;10438;51.454;6.718;2023-08-01T10:07:42;8.57;;;3.90;;
20559;SDS011;10438;51.454;6.718;2023-08-01T10:10:09;8.70;;;3.40;;
20559;SDS011;10438;51.454;6.718;2023-08-01T10:12:35;8.45;;;3.40;;
20559;SDS011;10438;51.454;6.718;2023-08-01T10:15:03;6.75;;;3.33;;
20559;SDS011;10438;51.454;6.718;2023-08-01T10:17:29;7.55;;;3.50;;
20559;SDS011;10438;51.454;6.718;2023-08-01T10:19:56;7.05;;;3.72;;
20559;SDS011;10438;51.454;6.718;2023-08-01T10:22:23;7.75;;;3.50;;
20559;SDS011;10438;51.454;6.718;2023-08-01T10:24:50;8.65;;;3.70;;
20559;SDS011;10438;51.454;6.718;2023-08-01T10:27:20;9.00;;;3.67;;
20559;SDS011;10438;51.454;6.718;2023-08-01T10:29:59;8.82;;;3.47;;
20559;SDS011;10438;51.454;6.718;2023-08-01T10:32:33;6.90;;;3.13;;
20559;SDS011;10438;51.454;6.718;2023-08-01T10:35:00;10.88;;;3.25;;
20559;SDS011;10438;51.454;6.718;2023-08-01T10:37:26;7.63;;;3.20;;
20559;SDS011;10438;51.454;6.718;2023-08-01T10:40:03;9.35;;;3.40;;
20559;SDS011;10438;51.454;6.718;2023-08-01T10:42:42;10.98;;;3.05;;
20559;SDS011;10438;51.454;6.718;2023-08-01T10:45:22;10.32;;;3.47;;
20559;SDS011;10438;51.454;6.718;2023-08-01T10:47:49;10.50;;;3.88;;
20559;SDS011;10438;51.454;6.718;2023-08-01T10:50:15;8.52;;;4.13;;
20559;SDS011;10438;51.454;6.718;2023-08-01T10:52:41;12.88;;;4.75;;
20559;SDS011;10438;51.454;6.718;2023-08-01T10:55:07;10.98;;;5.55;;
20559;SDS011;10438;51.454;6.718;2023-08-01T10:57:38;10.85;;;5.05;;
20559;SDS011;10438;51.454;6.718;2023-08-01T11:00:05;11.00;;;4.68;;
20559;SDS011;10438;51.454;6.718;2023-08-01T11:02:37;11.18;;;4.75;;
20559;SDS011;10438;51.454;6.718;2023-08-01T11:05:06;10.23;;;4.50;;
20559;SDS011;10438;51.454;6.718;2023-08-01T11:07:35;6.25;;;2.47;;
20559;SDS011;10438;51.454;6.718;2023-08-01T11:10:04;8.80;;;2.92;;
20559;SDS011;10438;51.454;6.718;2023-08-01T11:12:37;11.40;;;3.25;;
20559;SDS011;10438;51.454;6.718;2023-08-01T11:15:07;7.70;;;2.60;;
20559;SDS011;10438;51.454;6.718;2023-08-01T11:17:38;8.15;;;3.15;;
20559;SDS011;10438;51.454;6.718;2023-08-01T11:20:05;7.30;;;2.70;;
20559;SDS011;10438;51.454;6.718;2023-08-01T11:22:32;8.98;;;3.08;;
20559;SDS011;10438;51.454;6.718;2023-08-01T11:24:58;7.65;;;2.80;;
20559;SDS011;10438;51.454;6.718;2023-08-01T11:27:24;8.43;;;2.50;;
20559;SDS011;10438;51.454;6.718;2023-08-01T11:29:51;6.95;;;2.50;;
20559;SDS011;10438;51.454;6.718;2023-08-01T11:32:17;5.75;;;2.03;;
20559;SDS011;10438;51.454;6.718;2023-08-01T11:34:45;5.40;;;2.00;;
20559;SDS011;10438;51.454;6.718;2023-08-01T11:37:11;5.85;;;1.60;;
20559;SDS011;10438;51.454;6.718;2023-08-01T11:39:38;6.53;;;1.70;;
20559;SDS011;10438;51.454;6.718;2023-08-01T11:42:04;6.28;;;2.00;;
20559;SDS011;10438;51.454;6.718;2023-08-01T11:44:30;6.13;;;1.98;;
20559;SDS011;10438;51.454;6.718;2023-08-01T11:46:56;7.35;;;2.40;;
20559;SDS011;10438;51.454;6.718;2023-08-01T11:49:21;8.80;;;2.38;;
20559;SDS011;10438;51.454;6.718;2023-08-01T11:51:47;8.90;;;2.70;;
20559;SDS011;10438;51.454;6.718;2023-08-01T11:54:13;10.07;;;2.40;;
20559;SDS011;10438;51.454;6.718;2023-08-01T11:56:40;6.25;;;2.22;;
20559;SDS011;10438;51.454;6.718;2023-08-01T11:59:16;7.70;;;2.55;;
20559;SDS011;10438;51.454;6.718;2023-08-01T12:01:43;7.35;;;2.60;;
20559;SDS011;10438;51.454;6.718;2023-08-01T12:04:10;8.95;;;2.63;;
20559;SDS011;10438;51.454;6.718;2023-08-01T12:06:36;6.15;;;2.40;;
20559;SDS011;10438;51.454;6.718;2023-08-01T12:09:11;6.40;;;2.50;;
20559;SDS011;10438;51.454;6.718;2023-08-01T12:11:37;7.18;;;2.55;;
20559;SDS011;10438;51.454;6.718;2023-08-01T12:14:07;9.77;;;2.45;;
20559;SDS011;10438;51.454;6.718;2023-08-01T12:16:36;9.07;;;3.03;;
20559;SDS011;10438;51.454;6.718;2023-08-01T12:19:02;10.75;;;3.13;;
20559;SDS011;10438;51.454;6.718;2023-08-01T12:21:28;10.43;;;4.28;;
20559;SDS011;10438;51.454;6.718;2023-08-01T12:23:56;9.02;;;3.38;;
20559;SDS011;10438;51.454;6.718;2023-08-01T12:26:22;9.23;;;2.85;;
20559;SDS011;10438;51.454;6.718;2023-08-01T12:28:48;8.02;;;3.20;;
20559;SDS011;10438;51.454;6.718;2023-08-01T12:31:17;10.55;;;3.00;;
20559;SDS011;10438;51.454;6.718;2023-08-01T12:33:47;8.82;;;3.15;;
20559;SDS011;10438;51.454;6.718;2023-08-01T12:36:13;8.57;;;2.55;;
20559;SDS011;10438;51.454;6.718;2023-08-01T12:38:39;9.23;;;2.63;;
20559;SDS011;10438;51.454;6.718;2023-08-01T12:41:05;7.70;;;2.15;;
20559;SDS011;10438;51.454;6.718;2023-08-01T12:43:31;8.88;;;2.25;;
20559;SDS011;10438;51.454;6.718;2023-08-01T12:45:56;7.47;;;1.83;;
20559;SDS011;10438;51.454;6.718;2023-08-01T12:48:23;7.80;;;2.35;;
20559;SDS011;10438;51.454;6.718;2023-08-01T12:50:49;5.82;;;1.80;;
20559;SDS011;10438;51.454;6.718;2023-08-01T12:53:15;7.65;;;2.05;;
20559;SDS011;10438;51.454;6.718;2023-08-01T12:55:42;5.70;;;1.75;;
20559;SDS011;10438;51.454;6.718;2023-08-01T12:58:09;7.15;;;2.08;;
20559;SDS011;10438;51.454;6.718;2023-08-01T13:00:35;10.25;;;2.40;;
20559;SDS011;10438;51.454;6.718;2023-08-01T13:03:01;6.78;;;2.00;;
20559;SDS011;10438;51.454;6.718;2023-08-01T13:05:26;7.75;;;2.10;;
20559;SDS011;10438;51.454;6.718;2023-08-01T13:07:52;6.65;;;2.10;;
20559;SDS011;10438;51.454;6.718;2023-08-01T13:10:18;8.13;;;2.22;;
20559;SDS011;10438;51.454;6.718;2023-08-01T13:12:43;6.38;;;1.90;;
20559;SDS011;10438;51.454;6.718;2023-08-01T13:15:09;6.60;;;2.10;;
20559;SDS011;10438;51.454;6.718;2023-08-01T13:17:34;6.55;;;2.30;;
20559;SDS011;10438;51.454;6.718;2023-08-01T13:20:00;8.15;;;2.50;;
20559;SDS011;10438;51.454;6.718;2023-08-01T13:22:25;7.03;;;2.20;;
20559;SDS011;10438;51.454;6.718;2023-08-01T13:24:51;7.30;;;2.40;;
20559;SDS011;10438;51.454;6.718;2023-08-01T13:27:16;6.68;;;2.55;;
20559;SDS011;10438;51.454;6.718;2023-08-01T13:29:42;6.88;;;2.00;;
20559;SDS011;10438;51.454;6.718;2023-08-01T13:32:07;6.85;;;2.50;;
20559;SDS011;10438;51.454;6.718;2023-08-01T13:34:33;8.32;;;3.47;;
20559;SDS011;10438;51.454;6.718;2023-08-01T13:36:58;8.02;;;2.30;;
20559;SDS011;10438;51.454;6.718;2023-08-01T13:39:24;10.40;;;1.90;;
20559;SDS011;10438;51.454;6.718;2023-08-01T13:41:49;6.22;;;1.85;;
20559;SDS011;10438;51.454;6.718;2023-08-01T13:44:15;10.07;;;2.08;;
20559;SDS011;10438;51.454;6.718;2023-08-01T13:46:41;6.85;;;1.98;;
20559;SDS011;10438;51.454;6.718;2023-08-01T13:49:06;6.28;;;1.60;;
20559;SDS011;10438;51.454;6.718;2023-08-01T13:51:32;6.38;;;1.70;;
20559;SDS011;10438;51.454;6.718;2023-08-01T13:53:58;6.90;;;1.90;;
20559;SDS011;10438;51.454;6.718;2023-08-01T13:56:24;6.35;;;1.80;;
20559;SDS011;10438;51.454;6.718;2023-08-01T13:58:50;7.95;;;2.20;;
20559;SDS011;10438;51.454;6.718;2023-08-01T14:01:16;5.55;;;2.00;;
20559;SDS011;10438;51.454;6.718;2023-08-01T14:03:43;5.75;;;1.70;;
20559;SDS011;10438;51.454;6.718;2023-08-01T14:06:10;10.57;;;1.73;;
20559;SDS011;10438;51.454;6.718;2023-08-01T14:08:38;3.75;;;1.38;;
20559;SDS011;10438;51.454;6.718;2023-08-01T14:11:05;7.53;;;1.90;;
20559;SDS011;10438;51.454;6.718;2023-08-01T14:13:31;6.60;;;1.88;;
20559;SDS011;10438;51.454;6.718;2023-08-01T14:15:57;5.95;;;1.73;;
20559;SDS011;10438;51.454;6.718;2023-08-01T14:18:23;7.55;;;1.80;;
20559;SDS011;10438;51.454;6.718;2023-08-01T14:20:48;7.20;;;2.38;;
20559;SDS011;10438;51.454;6.718;2023-08-01T14:23:14;8.02;;;2.35;;
20559;SDS011;10438;51.454;6.718;2023-08-01T14:25:40;8.25;;;2.15;;
20559;SDS011;10438;51.454;6.718;2023-08-01T14:28:06;8.02;;;2.00;;
20559;SDS011;10438;51.454;6.718;2023-08-01T14:30:31;5.50;;;1.90;;
20559;SDS011;10438;51.454;6.718;2023-08-01T14:33:01;10.85;;;1.83;;
20559;SDS011;10438;51.454;6.718;2023-08-01T14:35:27;6.20;;;1.95;;
20559;SDS011;10438;51.454;6.718;2023-08-01T14:37:52;8.93;;;1.92;;
20559;SDS011;10438;51.454;6.718;2023-08-01T14:40:20;8.43;;;1.60;;
20559;SDS011;10438;51.454;6.718;2023-08-01T14:42:49;7.40;;;1.70;;
20559;SDS011;10438;51.454;6.718;2023-08-01T14:45:14;6.80;;;1.63;;
20559;SDS011;10438;51.454;6.718;2023-08-01T14:47:44;9.38;;;2.17;;
20559;SDS011;10438;51.454;6.718;2023-08-01T14:50:13;12.18;;;2.08;;